Time;durP1;ratioP1;P1;durP2;ratioP2;P2;SDS_P1;SDS_P2;PMS_P1;PMS_P2;Temp;Humidity;BMP_temperature;BMP_pressure;BME280_temperature;BME280_humidity;BME280_pressure;Samples;Min_cycle;Max_cycle;Signal;HPM_P1;HPM_P2
2022/09/10 00:01:25;;;;;;;8.65;2.83;;;;;;;;;;5051291;28;20029;-66
2022/09/10 00:03:52;;;;;;;5.95;2.45;;;;;;;;;;5051805;28;20029;-66
2022/09/10 00:06:18;;;;;;;9.55;2.95;;;;;;;;;;5049837;28;20037;-66
2022/09/10 00:08:44;;;;;;;7.22;2.90;;;;;;;;;;5051108;28;20098;-66
2022/09/10 00:11:10;;;;;;;6.10;2.28;;;;;;;;;;5051114;28;20055;-66
2022/09/10 00:13:40;;;;;;;7.35;2.55;;;;;;;;;;5019648;28;20030;-66
2022/09/10 00:16:09;;;;;;;6.53;2.75;;;;;;;;;;5030852;28;20557;-67
2022/09/10 00:18:36;;;;;;;6.13;2.38;;;;;;;;;;5013069;28;20037;-66
2022/09/10 00:21:06;;;;;;;5.78;2.38;;;;;;;;;;5013020;28;20034;-66
2022/09/10 00:23:31;;;;;;;8.77;2.67;;;;;;;;;;5031259;28;20061;-66
2022/09/10 00:25:57;;;;;;;5.75;2.38;;;;;;;;;;5012784;28;20060;-66
2022/09/10 00:28:26;;;;;;;6.68;2.53;;;;;;;;;;5031052;28;20450;-67
2022/09/10 00:30:53;;;;;;;4.68;2.15;;;;;;;;;;5025105;28;20017;-66
2022/09/10 00:33:20;;;;;;;7.63;2.78;;;;;;;;;;5029411;28;20041;-66
2022/09/10 00:35:47;;;;;;;6.18;2.38;;;;;;;;;;5050500;28;20509;-66
2022/09/10 00:38:13;;;;;;;5.22;2.50;;;;;;;;;;5049120;28;20029;-66
2022/09/10 00:40:39;;;;;;;8.73;2.75;;;;;;;;;;5050359;28;20037;-66
2022/09/10 00:43:19;;;;;;;5.40;2.60;;;;;;;;;;5050316;28;20032;-66
2022/09/10 00:45:48;;;;;;;4.82;2.33;;;;;;;;;;5050634;28;20098;-66
2022/09/10 00:48:20;;;;;;;3.45;2.22;;;;;;;;;;5050353;28;20160;-66
2022/09/10 00:50:50;;;;;;;9.23;2.83;;;;;;;;;;5050452;28;20039;-66
2022/09/10 00:53:20;;;;;;;4.18;2.20;;;;;;;;;;5050533;28;20029;-66
2022/09/10 00:55:49;;;;;;;3.83;2.28;;;;;;;;;;5048541;28;20068;-67
2022/09/10 00:58:18;;;;;;;6.70;2.88;;;;;;;;;;5028054;28;20025;-66
2022/09/10 01:00:44;;;;;;;6.45;2.60;;;;;;;;;;5030123;28;20036;-66
2022/09/10 01:03:12;;;;;;;8.82;3.25;;;;;;;;;;5012216;28;20033;-66
2022/09/10 01:05:41;;;;;;;5.22;2.40;;;;;;;;;;5030396;28;20060;-66
2022/09/10 01:08:11;;;;;;;3.42;2.13;;;;;;;;;;5030203;28;20707;-66
2022/09/10 01:11:05;;;;;;;5.03;2.40;;;;;;;;;;5029763;28;20060;-66
2022/09/10 01:14:14;;;;;;;3.67;2.30;;;;;;;;;;5017135;28;20052;-66
2022/09/10 01:17:13;;;;;;;9.90;3.00;;;;;;;;;;5016091;28;20044;-66
2022/09/10 01:19:58;;;;;;;7.80;3.05;;;;;;;;;;5029670;28;20025;-67
2022/09/10 01:23:02;;;;;;;5.75;2.63;;;;;;;;;;5029809;28;20035;-66
2022/09/10 01:26:05;;;;;;;6.70;2.90;;;;;;;;;;5037735;28;20029;-66
2022/09/10 01:29:09;;;;;;;8.18;3.15;;;;;;;;;;5030607;28;20060;-66
2022/09/10 01:31:44;;;;;;;8.32;2.70;;;;;;;;;;5046624;28;20474;-67
2022/09/10 01:34:20;;;;;;;9.30;3.45;;;;;;;;;;5049685;28;20028;-66
2022/09/10 01:36:47;;;;;;;10.63;2.97;;;;;;;;;;5047553;28;20024;-66
2022/09/10 01:39:15;;;;;;;5.30;2.78;;;;;;;;;;5048147;28;20025;-67
2022/09/10 01:41:42;;;;;;;11.13;3.58;;;;;;;;;;5049261;28;20032;-67
2022/09/10 01:44:40;;;;;;;9.35;3.60;;;;;;;;;;5049455;28;20041;-66
2022/09/10 01:47:50;;;;;;;8.63;3.95;;;;;;;;;;5049225;28;20163;-66
2022/09/10 01:50:20;;;;;;;9.93;3.42;;;;;;;;;;5031529;28;20397;-66
2022/09/10 01:53:13;;;;;;;8.20;3.67;;;;;;;;;;5031335;28;20028;-66
2022/09/10 01:55:40;;;;;;;7.80;3.47;;;;;;;;;;5049159;28;20029;-66
2022/09/10 01:58:08;;;;;;;8.02;3.67;;;;;;;;;;5049015;28;20064;-67
2022/09/10 02:00:40;;;;;;;7.18;3.33;;;;;;;;;;5047540;28;20029;-66
2022/09/10 02:03:10;;;;;;;10.95;4.18;;;;;;;;;;5025797;28;20034;-66
2022/09/10 02:05:38;;;;;;;10.35;4.40;;;;;;;;;;5028587;28;20367;-66
2022/09/10 02:08:11;;;;;;;8.40;4.30;;;;;;;;;;5029040;28;20112;-66
2022/09/10 02:10:48;;;;;;;;;;;;;;;;;;5028324;28;20387;-67
2022/09/10 02:13:13;;;;;;;11.27;4.25;;;;;;;;;;5028704;28;20324;-67
2022/09/10 02:15:39;;;;;;;5.70;3.65;;;;;;;;;;5028811;28;20525;-66
2022/09/10 02:18:05;;;;;;;12.07;4.75;;;;;;;;;;5028153;28;20052;-66
2022/09/10 02:20:30;;;;;;;11.68;4.80;;;;;;;;;;5010257;28;20041;-66
2022/09/10 02:22:58;;;;;;;11.90;4.70;;;;;;;;;;5028585;28;20034;-66
2022/09/10 02:25:30;;;;;;;13.75;4.55;;;;;;;;;;5017857;28;20029;-66
2022/09/10 02:27:56;;;;;;;10.75;4.57;;;;;;;;;;5047154;28;20621;-67
2022/09/10 02:30:23;;;;;;;11.60;4.47;;;;;;;;;;5023085;28;20090;-66
2022/09/10 02:32:49;;;;;;;10.50;4.72;;;;;;;;;;5047501;28;20563;-66
2022/09/10 02:35:14;;;;;;;9.45;4.50;;;;;;;;;;5048355;28;20032;-66
2022/09/10 02:37:41;;;;;;;9.70;4.82;;;;;;;;;;5029931;28;20037;-66
2022/09/10 02:40:08;;;;;;;10.50;4.47;;;;;;;;;;5047698;28;20055;-66
2022/09/10 02:42:33;;;;;;;11.55;4.95;;;;;;;;;;5048293;28;20091;-66
2022/09/10 02:44:59;;;;;;;7.25;4.25;;;;;;;;;;5048321;28;20078;-66
2022/09/10 02:47:24;;;;;;;16.20;4.50;;;;;;;;;;5047517;28;20039;-66
2022/09/10 02:49:50;;;;;;;10.85;4.63;;;;;;;;;;5048128;28;20056;-66
2022/09/10 02:52:15;;;;;;;14.43;4.80;;;;;;;;;;5047742;28;20110;-67
2022/09/10 02:54:40;;;;;;;12.55;5.20;;;;;;;;;;5048328;28;20454;-66
2022/09/10 02:57:06;;;;;;;10.85;4.47;;;;;;;;;;5045746;28;20466;-66
2022/09/10 02:59:32;;;;;;;11.13;4.57;;;;;;;;;;5031926;28;20047;-66
2022/09/10 03:01:58;;;;;;;12.85;4.60;;;;;;;;;;5027669;28;20164;-67
2022/09/10 03:04:23;;;;;;;8.85;4.57;;;;;;;;;;5009759;28;20056;-66
2022/09/10 03:06:48;;;;;;;12.77;4.88;;;;;;;;;;5028042;28;20020;-66
2022/09/10 03:09:14;;;;;;;11.43;4.90;;;;;;;;;;5027398;28;20124;-66
2022/09/10 03:11:40;;;;;;;13.77;5.15;;;;;;;;;;5041134;28;20037;-66
2022/09/10 03:14:08;;;;;;;7.43;4.18;;;;;;;;;;5047186;28;20064;-66
2022/09/10 03:16:34;;;;;;;13.23;5.25;;;;;;;;;;5047432;28;20526;-66
2022/09/10 03:18:59;;;;;;;12.60;4.95;;;;;;;;;;5046495;28;20067;-66
2022/09/10 03:21:24;;;;;;;13.23;4.78;;;;;;;;;;5046761;28;20112;-66
2022/09/10 03:23:51;;;;;;;9.60;4.57;;;;;;;;;;5047444;28;20056;-66
2022/09/10 03:26:18;;;;;;;12.38;5.20;;;;;;;;;;5029086;28;20060;-67
2022/09/10 03:28:45;;;;;;;9.93;4.95;;;;;;;;;;5046464;28;20837;-66
2022/09/10 03:31:12;;;;;;;11.10;4.88;;;;;;;;;;5047791;28;20025;-66
2022/09/10 03:33:39;;;;;;;12.35;4.85;;;;;;;;;;5047514;28;20045;-66
2022/09/10 03:36:06;;;;;;;11.82;4.25;;;;;;;;;;5047197;28;20046;-66
2022/09/10 03:38:31;;;;;;;7.88;5.10;;;;;;;;;;5029775;28;20045;-66
2022/09/10 03:40:56;;;;;;;11.80;4.55;;;;;;;;;;5027240;28;20052;-66
2022/09/10 03:43:22;;;;;;;10.50;4.20;;;;;;;;;;5027217;28;20025;-66
2022/09/10 03:45:48;;;;;;;9.68;4.90;;;;;;;;;;5027827;28;20017;-66
2022/09/10 03:48:15;;;;;;;13.98;4.90;;;;;;;;;;5027131;28;20564;-66
2022/09/10 03:50:43;;;;;;;14.73;5.28;;;;;;;;;;5031023;28;20129;-66
2022/09/10 03:53:12;;;;;;;13.43;5.43;;;;;;;;;;5027345;28;20041;-66
2022/09/10 03:55:38;;;;;;;12.90;5.35;;;;;;;;;;5027381;28;20034;-66
2022/09/10 03:58:05;;;;;;;10.68;5.32;;;;;;;;;;5045401;28;20484;-66
2022/09/10 04:00:31;;;;;;;13.15;5.25;;;;;;;;;;5046524;28;20029;-67
2022/09/10 04:02:57;;;;;;;12.25;5.70;;;;;;;;;;5029036;28;20045;-66
2022/09/10 04:05:24;;;;;;;11.35;5.90;;;;;;;;;;5046690;28;20599;-67
2022/09/10 04:07:50;;;;;;;12.43;6.35;;;;;;;;;;5046860;28;20171;-66
2022/09/10 04:10:15;;;;;;;13.60;6.30;;;;;;;;;;5047148;28;20079;-66
2022/09/10 04:12:41;;;;;;;9.80;5.50;;;;;;;;;;5047509;28;20482;-66
2022/09/10 04:15:07;;;;;;;12.27;5.78;;;;;;;;;;5046419;28;20041;-66
2022/09/10 04:17:32;;;;;;;10.82;5.45;;;;;;;;;;5046938;28;20042;-66
2022/09/10 04:19:58;;;;;;;11.90;5.65;;;;;;;;;;5028253;28;20108;-66
2022/09/10 04:22:23;;;;;;;16.13;6.07;;;;;;;;;;5046889;28;20040;-66
2022/09/10 04:24:48;;;;;;;11.15;5.80;;;;;;;;;;5028738;28;20032;-66
2022/09/10 04:27:15;;;;;;;14.98;6.22;;;;;;;;;;5037165;28;20106;-66
2022/09/10 04:29:41;;;;;;;14.60;6.72;;;;;;;;;;5026473;28;20096;-66
2022/09/10 04:32:07;;;;;;;12.23;6.60;;;;;;;;;;5027595;28;20041;-66
2022/09/10 04:34:33;;;;;;;13.60;6.57;;;;;;;;;;5048368;28;20741;-66
2022/09/10 04:36:58;;;;;;;13.98;6.40;;;;;;;;;;5050879;28;20800;-66
2022/09/10 04:39:23;;;;;;;13.77;5.85;;;;;;;;;;5049888;28;20048;-66
2022/09/10 04:41:49;;;;;;;11.25;6.20;;;;;;;;;;5050396;28;20040;-66
2022/09/10 04:44:18;;;;;;;12.68;6.65;;;;;;;;;;5050362;28;20048;-66
2022/09/10 04:46:43;;;;;;;12.88;6.28;;;;;;;;;;5026933;28;20533;-66
2022/09/10 04:49:09;;;;;;;13.85;6.82;;;;;;;;;;5049519;28;20037;-66
2022/09/10 04:51:35;;;;;;;11.18;5.22;;;;;;;;;;5049646;28;20027;-66
2022/09/10 04:54:00;;;;;;;13.48;5.95;;;;;;;;;;5045939;28;20036;-66
2022/09/10 04:56:26;;;;;;;15.20;7.32;;;;;;;;;;5044836;28;20072;-66
2022/09/10 04:58:51;;;;;;;11.38;6.47;;;;;;;;;;5039308;28;20029;-67
2022/09/10 05:01:17;;;;;;;13.20;5.90;;;;;;;;;;5049875;28;20449;-66
2022/09/10 05:03:42;;;;;;;13.45;6.55;;;;;;;;;;5047042;28;20108;-66
2022/09/10 05:06:08;;;;;;;18.38;7.45;;;;;;;;;;5029699;28;20115;-66
2022/09/10 05:08:33;;;;;;;15.30;6.80;;;;;;;;;;5030056;28;20080;-66
2022/09/10 05:11:01;;;;;;;20.20;6.82;;;;;;;;;;5030029;28;20038;-66
2022/09/10 05:13:29;;;;;;;13.65;6.35;;;;;;;;;;5049082;28;20083;-66
2022/09/10 05:15:56;;;;;;;15.38;6.30;;;;;;;;;;5031855;28;20052;-66
2022/09/10 05:18:22;;;;;;;13.13;5.90;;;;;;;;;;5049724;28;20044;-66
2022/09/10 05:20:48;;;;;;;13.43;6.65;;;;;;;;;;5027545;28;20049;-66
2022/09/10 05:23:13;;;;;;;13.95;5.82;;;;;;;;;;5049276;28;20048;-66
2022/09/10 05:25:38;;;;;;;19.42;6.60;;;;;;;;;;5049281;28;20048;-67
2022/09/10 05:28:04;;;;;;;16.08;7.25;;;;;;;;;;5049466;28;20116;-66
2022/09/10 05:30:31;;;;;;;14.30;7.20;;;;;;;;;;5048119;28;20017;-66
2022/09/10 05:32:56;;;;;;;11.27;6.80;;;;;;;;;;5049250;28;20473;-66
2022/09/10 05:35:22;;;;;;;14.43;7.18;;;;;;;;;;5048731;28;20037;-66
2022/09/10 05:37:47;;;;;;;18.00;7.50;;;;;;;;;;5048797;28;20589;-66
2022/09/10 05:40:13;;;;;;;17.73;6.68;;;;;;;;;;5048980;28;20039;-66
2022/09/10 05:42:39;;;;;;;15.88;6.75;;;;;;;;;;5049577;28;20421;-66
2022/09/10 05:45:04;;;;;;;16.15;7.25;;;;;;;;;;5048470;28;20517;-67
2022/09/10 05:47:30;;;;;;;14.77;7.22;;;;;;;;;;5048849;28;20032;-66
2022/09/10 05:49:55;;;;;;;15.32;7.30;;;;;;;;;;5048485;28;20073;-66
2022/09/10 05:52:20;;;;;;;16.00;6.65;;;;;;;;;;5048592;28;20053;-66
2022/09/10 05:54:46;;;;;;;12.98;6.13;;;;;;;;;;5049442;28;20025;-66
2022/09/10 05:57:11;;;;;;;16.88;7.65;;;;;;;;;;5031005;28;20041;-66
2022/09/10 05:59:36;;;;;;;13.13;7.50;;;;;;;;;;5048108;28;20032;-66
2022/09/10 06:02:02;;;;;;;14.85;7.13;;;;;;;;;;5048522;28;20080;-67
2022/09/10 06:04:27;;;;;;;17.85;8.10;;;;;;;;;;5048883;28;20037;-66
2022/09/10 06:06:53;;;;;;;14.65;7.35;;;;;;;;;;5048398;28;20513;-66
2022/09/10 06:09:18;;;;;;;14.10;7.35;;;;;;;;;;5048906;28;20033;-66
2022/09/10 06:11:46;;;;;;;16.20;6.32;;;;;;;;;;5048658;28;20079;-66
2022/09/10 06:14:13;;;;;;;18.63;7.68;;;;;;;;;;5030308;28;20045;-66
2022/09/10 06:16:39;;;;;;;16.83;8.13;;;;;;;;;;5048372;28;20068;-66
2022/09/10 06:19:04;;;;;;;15.63;7.93;;;;;;;;;;5049211;28;20571;-66
2022/09/10 06:21:29;;;;;;;14.23;7.28;;;;;;;;;;5049618;28;20032;-66
2022/09/10 06:23:55;;;;;;;21.02;8.85;;;;;;;;;;5048163;28;20375;-66
2022/09/10 06:26:20;;;;;;;19.98;8.23;;;;;;;;;;5030884;28;20037;-66
2022/09/10 06:28:46;;;;;;;20.52;9.00;;;;;;;;;;5049124;28;20583;-66
2022/09/10 06:31:16;;;;;;;17.98;8.98;;;;;;;;;;5047969;28;20115;-66
2022/09/10 06:33:41;;;;;;;15.68;8.43;;;;;;;;;;5048376;28;20482;-66
2022/09/10 06:36:08;;;;;;;18.33;9.05;;;;;;;;;;5048785;28;20111;-66
2022/09/10 06:38:34;;;;;;;20.45;10.23;;;;;;;;;;5047943;28;20048;-66
2022/09/10 06:41:04;;;;;;;21.20;10.63;;;;;;;;;;5030750;28;20037;-66
2022/09/10 06:43:38;;;;;;;18.10;9.05;;;;;;;;;;5047146;28;20067;-66
2022/09/10 06:46:09;;;;;;;22.27;11.27;;;;;;;;;;5029977;28;20028;-66
2022/09/10 06:48:38;;;;;;;19.77;9.85;;;;;;;;;;5048708;28;20547;-66
2022/09/10 06:51:06;;;;;;;22.30;10.07;;;;;;;;;;5029115;28;20044;-66
2022/09/10 06:53:32;;;;;;;21.45;10.88;;;;;;;;;;5030395;28;20171;-66
2022/09/10 06:55:59;;;;;;;23.38;10.93;;;;;;;;;;5046993;28;20136;-66
2022/09/10 06:58:24;;;;;;;19.73;10.48;;;;;;;;;;5047337;28;20060;-66
2022/09/10 07:00:50;;;;;;;22.88;11.55;;;;;;;;;;5048167;28;20529;-66
2022/09/10 07:03:18;;;;;;;22.55;11.00;;;;;;;;;;5048389;28;20033;-66
2022/09/10 07:05:44;;;;;;;23.58;12.23;;;;;;;;;;5042439;28;20032;-66
2022/09/10 07:08:11;;;;;;;29.30;12.10;;;;;;;;;;5010672;28;20042;-67
2022/09/10 07:10:37;;;;;;;23.85;12.00;;;;;;;;;;5028080;28;20061;-67
2022/09/10 07:13:03;;;;;;;23.42;11.80;;;;;;;;;;5027624;28;20112;-66
2022/09/10 07:15:29;;;;;;;27.48;12.38;;;;;;;;;;5028400;28;20133;-66
2022/09/10 07:17:54;;;;;;;20.67;11.82;;;;;;;;;;5014893;28;20038;-66
2022/09/10 07:20:22;;;;;;;27.73;15.30;;;;;;;;;;5041264;28;20056;-66
2022/09/10 07:22:50;;;;;;;22.95;12.65;;;;;;;;;;5040695;28;20037;-66
2022/09/10 07:25:16;;;;;;;23.83;12.80;;;;;;;;;;5040666;28;20052;-66
2022/09/10 07:27:41;;;;;;;24.27;12.57;;;;;;;;;;5041874;28;20021;-66
2022/09/10 07:30:07;;;;;;;26.30;13.52;;;;;;;;;;5040455;28;20087;-66
2022/09/10 07:32:33;;;;;;;25.73;12.38;;;;;;;;;;5036776;28;20069;-66
2022/09/10 07:34:59;;;;;;;26.60;13.77;;;;;;;;;;5023919;28;20141;-66
2022/09/10 07:37:25;;;;;;;27.17;13.68;;;;;;;;;;5046948;28;20601;-66
2022/09/10 07:39:50;;;;;;;27.30;14.30;;;;;;;;;;5047215;28;20114;-66
2022/09/10 07:42:15;;;;;;;24.33;13.20;;;;;;;;;;5038005;28;20038;-67
2022/09/10 07:44:41;;;;;;;29.65;14.07;;;;;;;;;;5027523;28;20052;-66
2022/09/10 07:47:06;;;;;;;27.27;13.77;;;;;;;;;;5037673;28;20033;-67
2022/09/10 07:49:32;;;;;;;29.52;13.45;;;;;;;;;;5047639;28;20048;-67
2022/09/10 07:51:58;;;;;;;27.35;12.93;;;;;;;;;;5048307;28;20040;-66
2022/09/10 07:54:24;;;;;;;25.00;13.13;;;;;;;;;;5045580;28;20037;-66
2022/09/10 07:56:49;;;;;;;29.90;13.25;;;;;;;;;;5039077;28;20383;-66
2022/09/10 07:59:15;;;;;;;26.35;13.68;;;;;;;;;;5026020;28;20561;-67
2022/09/10 08:01:41;;;;;;;25.70;13.02;;;;;;;;;;5027382;28;20410;-66
2022/09/10 08:04:06;;;;;;;32.10;14.38;;;;;;;;;;5027676;28;20533;-66
2022/09/10 08:06:32;;;;;;;29.52;13.60;;;;;;;;;;5036712;28;20500;-66
2022/09/10 08:08:58;;;;;;;26.60;13.25;;;;;;;;;;5049989;28;20056;-66
2022/09/10 08:11:25;;;;;;;23.67;12.80;;;;;;;;;;5050798;28;20032;-66
2022/09/10 08:13:51;;;;;;;27.13;12.45;;;;;;;;;;5050100;28;20025;-66
2022/09/10 08:16:25;;;;;;;29.90;13.35;;;;;;;;;;5049948;28;20053;-66
2022/09/10 08:18:50;;;;;;;27.35;12.82;;;;;;;;;;5050840;28;20096;-66
2022/09/10 08:21:17;;;;;;;25.70;13.32;;;;;;;;;;5050104;28;20141;-66
2022/09/10 08:23:47;;;;;;;27.45;12.88;;;;;;;;;;5047175;28;20040;-66
2022/09/10 08:26:13;;;;;;;24.38;12.45;;;;;;;;;;5036429;28;20041;-66
2022/09/10 08:28:38;;;;;;;25.63;13.05;;;;;;;;;;5031178;28;20040;-66
2022/09/10 08:31:10;;;;;;;26.23;13.65;;;;;;;;;;5029871;28;20052;-66
2022/09/10 08:33:39;;;;;;;22.45;12.75;;;;;;;;;;5012697;28;20116;-66
2022/09/10 08:36:07;;;;;;;24.17;13.25;;;;;;;;;;5030936;28;20029;-66
2022/09/10 08:38:35;;;;;;;26.10;13.75;;;;;;;;;;5030401;28;20053;-65
2022/09/10 08:41:13;;;;;;;21.10;13.00;;;;;;;;;;5036395;28;20082;-66
2022/09/10 08:43:57;;;;;;;21.52;13.00;;;;;;;;;;5039286;28;20033;-66
2022/09/10 08:46:54;;;;;;;24.35;13.82;;;;;;;;;;5041450;28;20025;-66
2022/09/10 08:49:47;;;;;;;25.85;13.10;;;;;;;;;;5041182;28;20023;-66
2022/09/10 08:52:13;;;;;;;24.90;12.90;;;;;;;;;;5047186;28;20021;-66
2022/09/10 08:54:53;;;;;;;27.77;15.07;;;;;;;;;;5045401;28;20035;-66
2022/09/10 08:57:25;;;;;;;26.83;13.73;;;;;;;;;;5043481;28;20040;-66
2022/09/10 08:59:53;;;;;;;25.40;12.75;;;;;;;;;;5044562;28;20473;-66
2022/09/10 09:02:30;;;;;;;23.60;13.50;;;;;;;;;;5042681;28;20103;-66
2022/09/10 09:05:01;;;;;;;24.60;13.73;;;;;;;;;;5038706;28;20294;-66
2022/09/10 09:07:33;;;;;;;22.50;13.45;;;;;;;;;;5034925;28;20040;-66
2022/09/10 09:09:59;;;;;;;23.65;13.55;;;;;;;;;;5035730;28;20020;-66
2022/09/10 09:13:09;;;;;;;24.92;14.25;;;;;;;;;;5047316;28;20043;-66
2022/09/10 09:15:50;;;;;;;25.70;13.18;;;;;;;;;;5001171;28;20056;-66
2022/09/10 09:18:46;;;;;;;27.23;12.98;;;;;;;;;;5047341;28;20037;-66
2022/09/10 09:21:45;;;;;;;23.92;11.73;;;;;;;;;;5049280;28;20552;-66
2022/09/10 09:24:26;;;;;;;19.75;12.02;;;;;;;;;;5044900;28;20037;-66
2022/09/10 09:26:59;;;;;;;21.67;11.75;;;;;;;;;;5043790;28;20029;-66
2022/09/10 09:29:33;;;;;;;20.95;10.85;;;;;;;;;;5049761;28;20048;-66
2022/09/10 09:32:02;;;;;;;17.58;9.63;;;;;;;;;;5048060;28;20033;-66
2022/09/10 09:34:53;;;;;;;21.92;11.13;;;;;;;;;;5048543;28;20029;-66
2022/09/10 09:37:24;;;;;;;20.23;10.40;;;;;;;;;;5048264;28;20029;-66
2022/09/10 09:40:04;;;;;;;22.48;11.65;;;;;;;;;;5030534;28;20430;-66
2022/09/10 09:42:41;;;;;;;16.15;9.35;;;;;;;;;;5048623;28;20041;-65
2022/09/10 09:45:18;;;;;;;21.02;10.02;;;;;;;;;;5048308;28;20037;-66
2022/09/10 09:47:45;;;;;;;16.13;9.40;;;;;;;;;;5047670;28;20029;-66
2022/09/10 09:50:11;;;;;;;17.35;9.68;;;;;;;;;;5047729;28;20560;-66
2022/09/10 09:52:39;;;;;;;13.60;9.02;;;;;;;;;;5030082;28;20583;-66
2022/09/10 09:55:14;;;;;;;17.30;8.80;;;;;;;;;;5048561;28;20024;-66
2022/09/10 09:57:41;;;;;;;20.90;10.65;;;;;;;;;;5045057;28;20024;-66
2022/09/10 10:00:34;;;;;;;18.13;9.60;;;;;;;;;;5035958;28;20072;-66
2022/09/10 10:03:13;;;;;;;18.40;10.13;;;;;;;;;;5028312;28;20112;-66
2022/09/10 10:05:38;;;;;;;18.10;10.55;;;;;;;;;;5028085;28;20037;-66
2022/09/10 10:08:04;;;;;;;18.92;10.43;;;;;;;;;;5028334;28;20043;-66
2022/09/10 10:10:29;;;;;;;17.38;10.20;;;;;;;;;;5028269;28;20407;-66
2022/09/10 10:12:55;;;;;;;17.05;10.02;;;;;;;;;;5034039;28;20489;-66
2022/09/10 10:15:36;;;;;;;16.33;10.20;;;;;;;;;;5047796;28;20068;-66
2022/09/10 10:18:21;;;;;;;19.25;10.32;;;;;;;;;;5047811;28;20142;-66
2022/09/10 10:20:48;;;;;;;15.10;8.40;;;;;;;;;;5039378;28;20044;-66
2022/09/10 10:23:36;;;;;;;14.90;7.72;;;;;;;;;;5031790;28;20056;-66
2022/09/10 10:26:14;;;;;;;15.05;7.82;;;;;;;;;;5041300;28;20029;-65
2022/09/10 10:28:45;;;;;;;16.23;8.02;;;;;;;;;;5045082;28;20064;-65
2022/09/10 10:31:11;;;;;;;8.93;5.57;;;;;;;;;;5014327;28;20025;-67
2022/09/10 10:33:51;;;;;;;9.90;5.45;;;;;;;;;;5011102;28;20574;-66
2022/09/10 10:36:26;;;;;;;6.85;4.75;;;;;;;;;;5028613;28;20080;-66
2022/09/10 10:39:06;;;;;;;7.97;5.00;;;;;;;;;;5044650;28;20124;-66
2022/09/10 10:42:24;;;;;;;13.35;8.77;;;;;;;;;;5041914;28;20033;-66
2022/09/10 10:45:04;;;;;;;18.27;9.02;;;;;;;;;;4977455;28;20504;-66
2022/09/10 10:47:39;;;;;;;17.88;10.07;;;;;;;;;;4984566;28;20113;-66
2022/09/10 10:50:25;;;;;;;24.65;12.65;;;;;;;;;;5023954;28;20040;-66
2022/09/10 10:53:28;;;;;;;18.65;9.15;;;;;;;;;;5038653;28;20493;-66
2022/09/10 10:56:13;;;;;;;16.67;9.18;;;;;;;;;;5032896;28;21434;-66
2022/09/10 10:58:38;;;;;;;18.13;9.05;;;;;;;;;;5027506;28;20045;-66
2022/09/10 11:01:15;;;;;;;16.17;8.85;;;;;;;;;;5009992;28;20037;-66
2022/09/10 11:03:51;;;;;;;18.83;12.98;;;;;;;;;;5027872;28;20020;-66
2022/09/10 11:06:23;;;;;;;13.23;7.43;;;;;;;;;;5027483;28;20033;-66
2022/09/10 11:09:23;;;;;;;15.65;8.38;;;;;;;;;;5041130;28;20033;-66
2022/09/10 11:12:28;;;;;;;17.55;8.50;;;;;;;;;;5040287;28;20048;-66
2022/09/10 11:15:24;;;;;;;12.52;7.47;;;;;;;;;;4986914;28;20033;-66
2022/09/10 11:18:06;;;;;;;14.20;8.30;;;;;;;;;;5031698;28;20678;-66
2022/09/10 11:20:57;;;;;;;16.10;8.07;;;;;;;;;;5046320;28;20075;-66
2022/09/10 11:23:25;;;;;;;13.50;8.38;;;;;;;;;;5046332;28;20029;-66
2022/09/10 11:26:16;;;;;;;13.15;7.63;;;;;;;;;;5046928;28;20033;-66
2022/09/10 11:29:19;;;;;;;12.80;8.00;;;;;;;;;;5042753;28;20049;-66
2022/09/10 11:31:55;;;;;;;15.13;8.05;;;;;;;;;;5046082;28;20496;-67
2022/09/10 11:34:31;;;;;;;17.83;8.95;;;;;;;;;;5040238;28;20049;-67
2022/09/10 11:37:00;;;;;;;16.00;7.97;;;;;;;;;;5040979;28;20409;-66
2022/09/10 11:39:39;;;;;;;15.45;8.00;;;;;;;;;;5045217;28;20102;-66
2022/09/10 11:42:17;;;;;;;14.02;8.68;;;;;;;;;;5044540;28;20474;-66
2022/09/10 11:45:05;;;;;;;16.48;8.45;;;;;;;;;;5034843;28;20033;-66
2022/09/10 11:47:38;;;;;;;12.02;7.95;;;;;;;;;;5018620;28;20184;-66
2022/09/10 11:50:21;;;;;;;13.05;7.93;;;;;;;;;;5038775;28;20112;-66
2022/09/10 11:52:46;;;;;;;12.40;7.85;;;;;;;;;;5015280;28;20410;-66
2022/09/10 11:55:16;;;;;;;10.68;7.47;;;;;;;;;;5046210;28;20529;-66
2022/09/10 11:57:59;;;;;;;12.98;7.25;;;;;;;;;;5046043;28;20525;-66
2022/09/10 12:00:28;;;;;;;;;;;;;;;;;;5046236;28;20336;-66
2022/09/10 12:03:33;;;;;;;10.98;6.85;;;;;;;;;;5045014;28;19931;-66
2022/09/10 12:06:16;;;;;;;9.13;6.38;;;;;;;;;;5030478;28;20037;-66
2022/09/10 12:08:54;;;;;;;12.03;6.80;;;;;;;;;;5039533;28;20025;-66
2022/09/10 12:11:34;;;;;;;10.73;7.40;;;;;;;;;;5036256;28;20041;-66
2022/09/10 12:14:06;;;;;;;10.57;7.20;;;;;;;;;;5042432;28;20079;-66
2022/09/10 12:16:44;;;;;;;11.15;7.63;;;;;;;;;;5037021;28;20037;-66
2022/09/10 12:19:32;;;;;;;11.90;7.60;;;;;;;;;;5044187;28;20021;-66
2022/09/10 12:22:02;;;;;;;13.38;8.13;;;;;;;;;;5046618;28;20043;-66
2022/09/10 12:24:30;;;;;;;11.10;7.25;;;;;;;;;;5042761;28;20047;-66
2022/09/10 12:26:58;;;;;;;13.18;6.13;;;;;;;;;;5037099;28;20100;-66
2022/09/10 12:29:32;;;;;;;11.30;6.70;;;;;;;;;;5035395;28;20044;-66
2022/09/10 12:32:06;;;;;;;9.18;6.63;;;;;;;;;;5034034;28;20025;-66
2022/09/10 12:34:32;;;;;;;12.85;6.75;;;;;;;;;;5044910;28;20048;-66
2022/09/10 12:36:57;;;;;;;17.00;7.00;;;;;;;;;;5045297;28;20029;-66
2022/09/10 12:39:24;;;;;;;11.55;6.45;;;;;;;;;;5044463;28;20082;-66
2022/09/10 12:41:50;;;;;;;9.60;6.10;;;;;;;;;;5044354;28;20462;-66
2022/09/10 12:44:34;;;;;;;10.48;6.30;;;;;;;;;;5044311;28;20072;-66
2022/09/10 12:47:15;;;;;;;11.00;6.07;;;;;;;;;;5044965;28;20116;-66
2022/09/10 12:49:50;;;;;;;10.05;5.88;;;;;;;;;;5037434;28;20043;-66
2022/09/10 12:52:51;;;;;;;10.30;5.55;;;;;;;;;;5033597;28;20025;-66
2022/09/10 12:55:35;;;;;;;10.30;6.10;;;;;;;;;;5008624;28;20044;-66
2022/09/10 12:58:23;;;;;;;;;;;;;;;;;;5030593;28;20026;-66
2022/09/10 13:00:55;;;;;;;10.75;6.85;;;;;;;;;;5032524;28;19955;-66
2022/09/10 13:03:23;;;;;;;12.55;6.85;;;;;;;;;;5035737;28;20041;-66
2022/09/10 13:05:54;;;;;;;14.65;6.60;;;;;;;;;;5018171;28;20150;-66
2022/09/10 13:08:32;;;;;;;11.85;6.57;;;;;;;;;;5032277;28;20037;-66
2022/09/10 13:10:58;;;;;;;10.02;6.30;;;;;;;;;;5035236;28;20041;-66
2022/09/10 13:13:42;;;;;;;11.25;6.68;;;;;;;;;;5038350;28;20084;-66
2022/09/10 13:16:39;;;;;;;10.93;6.43;;;;;;;;;;5035018;28;20118;-66
2022/09/10 13:19:13;;;;;;;10.35;6.47;;;;;;;;;;5015610;28;20056;-66
2022/09/10 13:21:41;;;;;;;10.88;6.15;;;;;;;;;;5025963;28;20174;-66
2022/09/10 13:24:33;;;;;;;11.35;6.38;;;;;;;;;;5012977;28;20135;-66
2022/09/10 13:27:19;;;;;;;7.53;5.03;;;;;;;;;;5042954;28;20574;-66
2022/09/10 13:30:09;;;;;;;11.45;6.53;;;;;;;;;;5026297;28;20051;-66
2022/09/10 13:32:43;;;;;;;7.03;4.47;;;;;;;;;;5038177;28;20123;-66
2022/09/10 13:35:20;;;;;;;10.98;5.72;;;;;;;;;;5034156;28;20053;-66
2022/09/10 13:38:16;;;;;;;14.07;5.93;;;;;;;;;;5033854;28;20965;-66
2022/09/10 13:41:13;;;;;;;9.00;5.63;;;;;;;;;;5002987;28;20037;-66
2022/09/10 13:43:45;;;;;;;13.52;6.82;;;;;;;;;;5014111;28;20537;-66
2022/09/10 13:46:31;;;;;;;10.35;6.18;;;;;;;;;;5041189;28;20033;-66
2022/09/10 13:49:20;;;;;;;9.68;6.30;;;;;;;;;;5047963;28;20025;-66
2022/09/10 13:51:55;;;;;;;11.73;6.15;;;;;;;;;;5028476;28;20045;-66
2022/09/10 13:54:30;;;;;;;15.48;7.15;;;;;;;;;;5046682;28;20131;-66
2022/09/10 13:57:10;;;;;;;13.15;6.80;;;;;;;;;;5038468;28;20064;-62
2022/09/10 13:59:36;;;;;;;9.23;6.45;;;;;;;;;;5034586;28;20102;-63
2022/09/10 14:02:01;;;;;;;11.45;6.70;;;;;;;;;;5032013;28;20482;-63
2022/09/10 14:04:28;;;;;;;11.85;6.57;;;;;;;;;;5017280;28;20094;-63
2022/09/10 14:07:00;;;;;;;12.88;7.53;;;;;;;;;;5036304;28;20033;-63
2022/09/10 14:09:25;;;;;;;10.65;6.70;;;;;;;;;;5044729;28;20035;-63
2022/09/10 14:11:52;;;;;;;13.70;7.10;;;;;;;;;;5037098;28;20029;-63
2022/09/10 14:14:26;;;;;;;12.00;7.13;;;;;;;;;;5027064;28;20041;-63
2022/09/10 14:16:59;;;;;;;12.15;7.07;;;;;;;;;;5035292;28;20094;-63
2022/09/10 14:19:38;;;;;;;11.38;6.97;;;;;;;;;;5037968;28;20678;-63
2022/09/10 14:22:04;;;;;;;12.52;7.45;;;;;;;;;;5043355;28;20043;-63
2022/09/10 14:24:38;;;;;;;15.07;6.57;;;;;;;;;;5048115;28;20025;-63
2022/09/10 14:27:14;;;;;;;11.57;6.15;;;;;;;;;;5039644;28;20043;-63
2022/09/10 14:29:41;;;;;;;9.60;5.60;;;;;;;;;;5023385;28;20561;-63
2022/09/10 14:32:21;;;;;;;8.10;5.05;;;;;;;;;;5025300;28;20612;-63
2022/09/10 14:34:47;;;;;;;8.93;5.07;;;;;;;;;;5025466;28;20573;-63
2022/09/10 14:37:31;;;;;;;6.68;4.45;;;;;;;;;;5025031;28;20029;-63
2022/09/10 14:40:00;;;;;;;8.15;4.65;;;;;;;;;;5025487;28;20495;-63
2022/09/10 14:42:32;;;;;;;8.82;4.50;;;;;;;;;;5024961;28;20575;-63
2022/09/10 14:44:58;;;;;;;12.02;5.07;;;;;;;;;;5007687;28;20057;-63
2022/09/10 14:47:36;;;;;;;14.10;5.60;;;;;;;;;;5024618;28;20679;-64
2022/09/10 14:50:30;;;;;;;9.02;6.28;;;;;;;;;;5037003;28;20033;-63
2022/09/10 14:52:56;;;;;;;10.27;6.85;;;;;;;;;;5027234;28;20532;-63
2022/09/10 14:55:24;;;;;;;13.00;6.40;;;;;;;;;;5045943;28;20064;-63
2022/09/10 14:57:52;;;;;;;13.20;6.97;;;;;;;;;;5038991;28;20020;-63
2022/09/10 15:00:17;;;;;;;10.68;6.55;;;;;;;;;;5024961;28;20064;-63